Akraberg, Faroe Islands

2:12 AM WEST on September 22, 2017 (GMT +0100)
Vagar | | Change Station

Elev 279 ft 62.07 °N, 7.27 °W | Updated 22 minutes ago

Partly Cloudy
Partly Cloudy
50 °F
Feels Like 50 °F
N
12
Wind Variable Wind from SSE

Today
High -- | Low -- °F
--% Chance of Precip.
Yesterday
High -- | Low -- °F
Precip. -- in
Pressure 29.83 in
Visibility 6.2 miles
Clouds Few 800 ft
Mostly Cloudy 2000 ft
Dew Point 48 °F
Humidity 94%
Rainfall 0.00 in
Snow Depth Not available.
7:10 AM 7:26 PM
Waxing Crescent, 4% visible
METAR EKVG 220050Z AUTO 16010KT 9999NDV FEW008/// BKN020/// 10/09 Q1010 RMK FEW011/// BKN022/// WIND 850FT 15019KT
Pressure 29.83 in
Visibility 6.2 miles
Clouds Few 800 ft
Mostly Cloudy 2000 ft
Dew Point 48 °F
Humidity 94%
Rainfall 0.00 in
Snow Depth Not available.
7:10 AM 7:26 PM
Waxing Crescent, 4% visible
METAR EKVG 220050Z AUTO 16010KT 9999NDV FEW008/// BKN020/// 10/09 Q1010 RMK FEW011/// BKN022/// WIND 850FT 15019KT

Get Severe Weather Alerts

Thanks for signing up!

Be on the lookout for a verification email in your inbox.

You'll start receiving the daily forecast at 6 AM.

×

10-Day Weather Forecast

No radar image for this location.
×

Almanac

Astronomy

Sep. 22, 2017 Rise Set
Actual Time
Civil Twilight
Nautical Twilight
Astronomical Twilight
Moon
Length of Visible Light
Length of Day
Tomorrow will be .
, % of the Moon is Illuminated

Today's Extremes

Country Highs Country Lows

Community

WunderPhotos

Category 6

Welcome to Category 6. This is the collective home for Weather Underground's featured writeups by Dr. Jeff Masters (right), Bob Henson (left), Chris Burt, and other regular contributors.

Nearby

Air Quality

  Air Quality AQ Index Pollutant
Not available.

Snow Depth

Station Depth Elevation

Earthquake Activity

City Distance Mag. Time & Date
Minimum magnitude displayed is 2.5.

Coastal Water Temperatures

Place Temperature

Stations

Nearby Weather Stations

Station Location Temp. Windchill Dew Point Humidity Wind Precip. Elev Updated Type